sensor_id;sensor_type;location;lat;lon;timestamp;temperature;humidity
65231;DHT22;51813;40.666;16.602;2023-01-26T00:01:12;14.40;62.70
65231;DHT22;51813;40.666;16.602;2023-01-26T00:03:38;14.40;62.90
65231;DHT22;51813;40.666;16.602;2023-01-26T00:06:05;14.40;62.70
65231;DHT22;51813;40.666;16.602;2023-01-26T00:08:38;14.40;62.70
65231;DHT22;51813;40.666;16.602;2023-01-26T00:11:05;14.30;62.60
65231;DHT22;51813;40.666;16.602;2023-01-26T00:13:32;14.30;62.80
65231;DHT22;51813;40.666;16.602;2023-01-26T00:15:58;14.40;62.90
65231;DHT22;51813;40.666;16.602;2023-01-26T00:18:24;14.40;62.80
65231;DHT22;51813;40.666;16.602;2023-01-26T00:20:56;14.40;62.70
65231;DHT22;51813;40.666;16.602;2023-01-26T00:23:22;14.40;62.80
65231;DHT22;51813;40.666;16.602;2023-01-26T00:25:48;14.40;62.70
65231;DHT22;51813;40.666;16.602;2023-01-26T00:28:14;14.40;62.70
65231;DHT22;51813;40.666;16.602;2023-01-26T00:30:40;14.40;62.60
65231;DHT22;51813;40.666;16.602;2023-01-26T00:33:05;14.30;62.40
65231;DHT22;51813;40.666;16.602;2023-01-26T00:35:31;14.30;62.60
65231;DHT22;51813;40.666;16.602;2023-01-26T00:37:57;14.20;63.00
65231;DHT22;51813;40.666;16.602;2023-01-26T00:40:22;14.20;63.10
65231;DHT22;51813;40.666;16.602;2023-01-26T00:42:48;14.30;62.90
65231;DHT22;51813;40.666;16.602;2023-01-26T00:45:14;14.30;62.80
65231;DHT22;51813;40.666;16.602;2023-01-26T00:47:40;14.20;63.00
65231;DHT22;51813;40.666;16.602;2023-01-26T00:50:06;14.20;63.20
65231;DHT22;51813;40.666;16.602;2023-01-26T00:52:31;14.20;62.90
65231;DHT22;51813;40.666;16.602;2023-01-26T00:54:57;14.20;63.10
65231;DHT22;51813;40.666;16.602;2023-01-26T00:57:23;14.20;63.00
65231;DHT22;51813;40.666;16.602;2023-01-26T00:59:49;14.20;62.90
65231;DHT22;51813;40.666;16.602;2023-01-26T01:02:14;14.20;62.80
65231;DHT22;51813;40.666;16.602;2023-01-26T01:04:40;14.20;62.80
65231;DHT22;51813;40.666;16.602;2023-01-26T01:07:06;14.30;62.80
65231;DHT22;51813;40.666;16.602;2023-01-26T01:09:32;14.30;62.80
65231;DHT22;51813;40.666;16.602;2023-01-26T01:11:58;14.20;62.70
65231;DHT22;51813;40.666;16.602;2023-01-26T01:14:23;14.20;62.80
65231;DHT22;51813;40.666;16.602;2023-01-26T01:16:49;14.20;62.80
65231;DHT22;51813;40.666;16.602;2023-01-26T01:19:16;14.30;62.70
65231;DHT22;51813;40.666;16.602;2023-01-26T01:21:43;14.30;62.80
65231;DHT22;51813;40.666;16.602;2023-01-26T01:24:10;14.30;62.60
65231;DHT22;51813;40.666;16.602;2023-01-26T01:26:35;14.30;62.60
65231;DHT22;51813;40.666;16.602;2023-01-26T01:29:02;14.30;62.60
65231;DHT22;51813;40.666;16.602;2023-01-26T01:31:28;14.30;62.70
65231;DHT22;51813;40.666;16.602;2023-01-26T01:33:55;14.30;62.60
65231;DHT22;51813;40.666;16.602;2023-01-26T01:36:21;14.30;62.60
65231;DHT22;51813;40.666;16.602;2023-01-26T01:38:47;14.30;62.70
65231;DHT22;51813;40.666;16.602;2023-01-26T01:41:18;14.30;62.30
65231;DHT22;51813;40.666;16.602;2023-01-26T01:43:44;14.20;62.60
65231;DHT22;51813;40.666;16.602;2023-01-26T01:54:31;14.30;62.60
65231;DHT22;51813;40.666;16.602;2023-01-26T01:57:01;14.20;62.50
65231;DHT22;51813;40.666;16.602;2023-01-26T01:59:29;14.20;62.70
65231;DHT22;51813;40.666;16.602;2023-01-26T02:01:56;14.20;62.50
65231;DHT22;51813;40.666;16.602;2023-01-26T02:04:22;14.20;62.50
65231;DHT22;51813;40.666;16.602;2023-01-26T02:06:51;14.20;62.60
65231;DHT22;51813;40.666;16.602;2023-01-26T02:09:19;14.20;62.60
65231;DHT22;51813;40.666;16.602;2023-01-26T02:12:07;14.20;62.50
65231;DHT22;51813;40.666;16.602;2023-01-26T02:14:33;14.20;62.40
65231;DHT22;51813;40.666;16.602;2023-01-26T02:16:59;14.20;62.60
65231;DHT22;51813;40.666;16.602;2023-01-26T02:19:48;14.20;62.60
65231;DHT22;51813;40.666;16.602;2023-01-26T02:22:27;14.20;62.40
65231;DHT22;51813;40.666;16.602;2023-01-26T02:25:03;14.20;62.60
65231;DHT22;51813;40.666;16.602;2023-01-26T02:27:31;14.30;62.50
65231;DHT22;51813;40.666;16.602;2023-01-26T02:29:57;14.20;62.40
65231;DHT22;51813;40.666;16.602;2023-01-26T02:32:24;14.30;62.50
65231;DHT22;51813;40.666;16.602;2023-01-26T02:34:56;14.20;62.50
65231;DHT22;51813;40.666;16.602;2023-01-26T02:37:22;14.20;62.30
65231;DHT22;51813;40.666;16.602;2023-01-26T02:39:51;14.20;62.30
65231;DHT22;51813;40.666;16.602;2023-01-26T02:42:17;14.30;62.30
65231;DHT22;51813;40.666;16.602;2023-01-26T02:45:01;14.20;62.30
65231;DHT22;51813;40.666;16.602;2023-01-26T02:47:27;14.20;62.50
65231;DHT22;51813;40.666;16.602;2023-01-26T02:49:52;14.20;62.70
65231;DHT22;51813;40.666;16.602;2023-01-26T02:52:24;14.20;62.50
65231;DHT22;51813;40.666;16.602;2023-01-26T02:54:51;14.20;62.70
65231;DHT22;51813;40.666;16.602;2023-01-26T02:57:36;14.20;62.50
65231;DHT22;51813;40.666;16.602;2023-01-26T03:00:04;14.20;62.30
65231;DHT22;51813;40.666;16.602;2023-01-26T03:02:30;14.20;62.30
65231;DHT22;51813;40.666;16.602;2023-01-26T03:04:56;14.20;62.20
65231;DHT22;51813;40.666;16.602;2023-01-26T03:07:21;14.20;62.20
65231;DHT22;51813;40.666;16.602;2023-01-26T03:09:47;14.20;62.30
65231;DHT22;51813;40.666;16.602;2023-01-26T03:12:13;14.20;62.30
65231;DHT22;51813;40.666;16.602;2023-01-26T03:14:38;14.20;62.30
65231;DHT22;51813;40.666;16.602;2023-01-26T03:17:04;14.20;62.50
65231;DHT22;51813;40.666;16.602;2023-01-26T03:19:30;14.10;62.30
65231;DHT22;51813;40.666;16.602;2023-01-26T03:22:14;14.20;62.40
65231;DHT22;51813;40.666;16.602;2023-01-26T03:24:58;14.20;62.10
65231;DHT22;51813;40.666;16.602;2023-01-26T03:27:47;14.20;62.30
65231;DHT22;51813;40.666;16.602;2023-01-26T03:30:16;14.20;62.10
65231;DHT22;51813;40.666;16.602;2023-01-26T03:32:42;14.20;62.10
65231;DHT22;51813;40.666;16.602;2023-01-26T03:35:09;14.20;62.30
65231;DHT22;51813;40.666;16.602;2023-01-26T03:37:41;14.20;62.30
65231;DHT22;51813;40.666;16.602;2023-01-26T03:40:09;14.20;62.20
65231;DHT22;51813;40.666;16.602;2023-01-26T03:42:53;14.20;62.30
65231;DHT22;51813;40.666;16.602;2023-01-26T03:45:37;14.20;62.10
65231;DHT22;51813;40.666;16.602;2023-01-26T03:48:21;14.20;62.20
65231;DHT22;51813;40.666;16.602;2023-01-26T03:51:05;14.20;62.10
65231;DHT22;51813;40.666;16.602;2023-01-26T03:53:49;14.10;62.40
65231;DHT22;51813;40.666;16.602;2023-01-26T03:56:34;14.20;62.20
65231;DHT22;51813;40.666;16.602;2023-01-26T03:59:04;14.20;62.20
65231;DHT22;51813;40.666;16.602;2023-01-26T04:01:35;14.20;62.00
65231;DHT22;51813;40.666;16.602;2023-01-26T04:04:01;14.10;62.20
65231;DHT22;51813;40.666;16.602;2023-01-26T04:06:46;14.20;62.10
65231;DHT22;51813;40.666;16.602;2023-01-26T04:09:31;14.20;62.20
65231;DHT22;51813;40.666;16.602;2023-01-26T04:11:57;14.20;62.20
65231;DHT22;51813;40.666;16.602;2023-01-26T04:14:23;14.20;62.00
65231;DHT22;51813;40.666;16.602;2023-01-26T04:17:07;14.10;62.20
65231;DHT22;51813;40.666;16.602;2023-01-26T04:19:52;14.10;62.30
65231;DHT22;51813;40.666;16.602;2023-01-26T04:22:37;14.10;62.30
65231;DHT22;51813;40.666;16.602;2023-01-26T04:25:12;14.10;62.40
65231;DHT22;51813;40.666;16.602;2023-01-26T04:27:39;14.10;62.40
65231;DHT22;51813;40.666;16.602;2023-01-26T04:30:06;14.10;62.10
65231;DHT22;51813;40.666;16.602;2023-01-26T04:32:32;14.10;62.10
65231;DHT22;51813;40.666;16.602;2023-01-26T04:34:58;14.20;62.10
65231;DHT22;51813;40.666;16.602;2023-01-26T04:37:23;14.10;62.10
65231;DHT22;51813;40.666;16.602;2023-01-26T04:39:49;14.10;62.10
65231;DHT22;51813;40.666;16.602;2023-01-26T04:42:15;14.20;62.10
65231;DHT22;51813;40.666;16.602;2023-01-26T04:44:40;14.10;62.00
65231;DHT22;51813;40.666;16.602;2023-01-26T04:47:06;14.20;61.90
65231;DHT22;51813;40.666;16.602;2023-01-26T04:49:32;14.10;61.80
65231;DHT22;51813;40.666;16.602;2023-01-26T04:51:57;14.10;62.10
65231;DHT22;51813;40.666;16.602;2023-01-26T04:54:23;14.10;62.10
65231;DHT22;51813;40.666;16.602;2023-01-26T04:56:49;14.10;62.00
65231;DHT22;51813;40.666;16.602;2023-01-26T04:59:16;14.10;62.20
65231;DHT22;51813;40.666;16.602;2023-01-26T05:01:42;14.10;62.10
65231;DHT22;51813;40.666;16.602;2023-01-26T05:04:10;14.10;62.00
65231;DHT22;51813;40.666;16.602;2023-01-26T05:06:37;14.10;62.00
65231;DHT22;51813;40.666;16.602;2023-01-26T05:09:03;14.10;62.00
65231;DHT22;51813;40.666;16.602;2023-01-26T05:11:29;14.20;61.90
65231;DHT22;51813;40.666;16.602;2023-01-26T05:13:55;14.20;61.90
65231;DHT22;51813;40.666;16.602;2023-01-26T05:16:21;14.10;61.90
65231;DHT22;51813;40.666;16.602;2023-01-26T05:18:47;14.10;61.90
65231;DHT22;51813;40.666;16.602;2023-01-26T05:21:13;14.20;61.80
65231;DHT22;51813;40.666;16.602;2023-01-26T05:23:38;14.20;61.80
65231;DHT22;51813;40.666;16.602;2023-01-26T05:26:04;14.20;61.60
65231;DHT22;51813;40.666;16.602;2023-01-26T05:28:31;14.10;62.00
65231;DHT22;51813;40.666;16.602;2023-01-26T05:30:56;14.20;62.00
65231;DHT22;51813;40.666;16.602;2023-01-26T05:33:22;14.20;61.90
65231;DHT22;51813;40.666;16.602;2023-01-26T05:35:48;14.20;61.90
65231;DHT22;51813;40.666;16.602;2023-01-26T05:38:14;14.20;62.00
65231;DHT22;51813;40.666;16.602;2023-01-26T05:40:40;14.20;61.80
65231;DHT22;51813;40.666;16.602;2023-01-26T05:43:06;14.20;62.00
65231;DHT22;51813;40.666;16.602;2023-01-26T05:45:33;14.20;61.90
65231;DHT22;51813;40.666;16.602;2023-01-26T05:47:59;14.20;61.70
65231;DHT22;51813;40.666;16.602;2023-01-26T05:50:25;14.20;61.80
65231;DHT22;51813;40.666;16.602;2023-01-26T05:52:50;14.20;61.80
65231;DHT22;51813;40.666;16.602;2023-01-26T05:55:16;14.20;61.90
65231;DHT22;51813;40.666;16.602;2023-01-26T05:57:42;14.20;61.80
65231;DHT22;51813;40.666;16.602;2023-01-26T06:00:09;14.20;61.70
65231;DHT22;51813;40.666;16.602;2023-01-26T06:02:35;14.20;61.80
65231;DHT22;51813;40.666;16.602;2023-01-26T06:05:01;14.20;61.80
65231;DHT22;51813;40.666;16.602;2023-01-26T06:07:26;14.20;62.00
65231;DHT22;51813;40.666;16.602;2023-01-26T06:09:52;14.10;61.90
65231;DHT22;51813;40.666;16.602;2023-01-26T06:12:19;14.10;61.80
65231;DHT22;51813;40.666;16.602;2023-01-26T06:14:45;14.10;61.80
65231;DHT22;51813;40.666;16.602;2023-01-26T06:17:12;14.10;62.00
65231;DHT22;51813;40.666;16.602;2023-01-26T06:19:39;14.10;62.00
65231;DHT22;51813;40.666;16.602;2023-01-26T06:22:11;14.10;62.10
65231;DHT22;51813;40.666;16.602;2023-01-26T06:24:37;14.10;62.10
65231;DHT22;51813;40.666;16.602;2023-01-26T06:27:03;14.10;62.10
65231;DHT22;51813;40.666;16.602;2023-01-26T06:29:31;14.10;62.10
65231;DHT22;51813;40.666;16.602;2023-01-26T06:31:58;14.10;62.00
65231;DHT22;51813;40.666;16.602;2023-01-26T06:34:24;14.10;61.90
65231;DHT22;51813;40.666;16.602;2023-01-26T06:36:49;14.10;62.00
65231;DHT22;51813;40.666;16.602;2023-01-26T06:39:15;14.10;61.90
65231;DHT22;51813;40.666;16.602;2023-01-26T06:41:42;14.10;61.90
65231;DHT22;51813;40.666;16.602;2023-01-26T06:44:11;14.10;61.80
65231;DHT22;51813;40.666;16.602;2023-01-26T06:46:37;14.10;61.80
65231;DHT22;51813;40.666;16.602;2023-01-26T06:49:03;14.10;62.70
65231;DHT22;51813;40.666;16.602;2023-01-26T06:51:43;14.00;61.80
65231;DHT22;51813;40.666;16.602;2023-01-26T06:54:11;14.10;62.30
65231;DHT22;51813;40.666;16.602;2023-01-26T06:56:37;14.10;62.10
65231;DHT22;51813;40.666;16.602;2023-01-26T06:59:03;14.10;62.00
65231;DHT22;51813;40.666;16.602;2023-01-26T07:01:35;14.10;62.00
65231;DHT22;51813;40.666;16.602;2023-01-26T07:04:01;14.10;61.90
65231;DHT22;51813;40.666;16.602;2023-01-26T07:06:27;14.10;61.90
65231;DHT22;51813;40.666;16.602;2023-01-26T07:08:53;14.20;61.90
65231;DHT22;51813;40.666;16.602;2023-01-26T07:11:18;14.10;61.90
65231;DHT22;51813;40.666;16.602;2023-01-26T07:13:45;14.10;61.90
65231;DHT22;51813;40.666;16.602;2023-01-26T07:16:14;14.00;62.20
65231;DHT22;51813;40.666;16.602;2023-01-26T07:18:40;14.00;62.00
65231;DHT22;51813;40.666;16.602;2023-01-26T07:21:08;14.00;62.30
65231;DHT22;51813;40.666;16.602;2023-01-26T07:23:35;14.00;62.30
65231;DHT22;51813;40.666;16.602;2023-01-26T07:26:01;14.00;62.00
65231;DHT22;51813;40.666;16.602;2023-01-26T07:28:27;14.10;62.00
65231;DHT22;51813;40.666;16.602;2023-01-26T07:30:58;14.10;62.10
65231;DHT22;51813;40.666;16.602;2023-01-26T07:33:24;14.10;61.90
65231;DHT22;51813;40.666;16.602;2023-01-26T07:35:53;14.10;62.00
65231;DHT22;51813;40.666;16.602;2023-01-26T07:38:19;14.10;62.30
65231;DHT22;51813;40.666;16.602;2023-01-26T07:40:45;14.10;62.00
65231;DHT22;51813;40.666;16.602;2023-01-26T07:43:10;14.10;62.00
65231;DHT22;51813;40.666;16.602;2023-01-26T07:45:36;14.10;62.00
65231;DHT22;51813;40.666;16.602;2023-01-26T07:48:02;14.10;62.00
65231;DHT22;51813;40.666;16.602;2023-01-26T07:50:27;14.10;61.90
65231;DHT22;51813;40.666;16.602;2023-01-26T07:52:53;14.10;62.00
65231;DHT22;51813;40.666;16.602;2023-01-26T07:55:19;14.10;62.00
65231;DHT22;51813;40.666;16.602;2023-01-26T07:57:49;14.10;62.10
65231;DHT22;51813;40.666;16.602;2023-01-26T08:00:15;14.10;62.00
65231;DHT22;51813;40.666;16.602;2023-01-26T08:02:41;14.10;62.10
65231;DHT22;51813;40.666;16.602;2023-01-26T08:05:07;14.10;62.80
65231;DHT22;51813;40.666;16.602;2023-01-26T08:07:33;14.10;63.00
65231;DHT22;51813;40.666;16.602;2023-01-26T08:09:59;14.10;63.20
65231;DHT22;51813;40.666;16.602;2023-01-26T08:12:25;14.00;63.20
65231;DHT22;51813;40.666;16.602;2023-01-26T08:14:51;14.10;63.40
65231;DHT22;51813;40.666;16.602;2023-01-26T08:17:17;14.10;63.40
65231;DHT22;51813;40.666;16.602;2023-01-26T08:19:44;14.10;63.00
65231;DHT22;51813;40.666;16.602;2023-01-26T08:22:10;14.10;63.00
65231;DHT22;51813;40.666;16.602;2023-01-26T08:24:36;14.10;63.00
65231;DHT22;51813;40.666;16.602;2023-01-26T08:27:02;14.10;63.00
65231;DHT22;51813;40.666;16.602;2023-01-26T08:29:28;14.10;62.80
65231;DHT22;51813;40.666;16.602;2023-01-26T08:31:53;14.20;63.00
65231;DHT22;51813;40.666;16.602;2023-01-26T08:34:19;14.20;62.50
65231;DHT22;51813;40.666;16.602;2023-01-26T08:36:47;14.30;62.70
65231;DHT22;51813;40.666;16.602;2023-01-26T08:39:13;14.30;62.60
65231;DHT22;51813;40.666;16.602;2023-01-26T08:41:39;14.30;62.40
65231;DHT22;51813;40.666;16.602;2023-01-26T08:44:05;14.20;62.80
65231;DHT22;51813;40.666;16.602;2023-01-26T08:46:31;14.20;62.50
65231;DHT22;51813;40.666;16.602;2023-01-26T08:48:57;14.10;61.40
65231;DHT22;51813;40.666;16.602;2023-01-26T08:51:23;14.10;61.30
65231;DHT22;51813;40.666;16.602;2023-01-26T08:53:49;14.20;61.40
65231;DHT22;51813;40.666;16.602;2023-01-26T08:56:14;14.30;61.50
65231;DHT22;51813;40.666;16.602;2023-01-26T08:58:40;14.30;61.50
65231;DHT22;51813;40.666;16.602;2023-01-26T09:01:12;14.30;61.30
65231;DHT22;51813;40.666;16.602;2023-01-26T09:03:38;14.30;61.30
65231;DHT22;51813;40.666;16.602;2023-01-26T09:06:05;14.40;61.40
65231;DHT22;51813;40.666;16.602;2023-01-26T09:08:31;14.30;61.20
65231;DHT22;51813;40.666;16.602;2023-01-26T09:10:57;14.40;61.40
65231;DHT22;51813;40.666;16.602;2023-01-26T09:13:23;14.40;61.40
65231;DHT22;51813;40.666;16.602;2023-01-26T09:15:49;14.40;61.50
65231;DHT22;51813;40.666;16.602;2023-01-26T09:18:15;14.40;61.70
65231;DHT22;51813;40.666;16.602;2023-01-26T09:20:41;14.30;61.50
65231;DHT22;51813;40.666;16.602;2023-01-26T09:23:06;14.40;61.70
65231;DHT22;51813;40.666;16.602;2023-01-26T09:25:35;14.40;61.70
65231;DHT22;51813;40.666;16.602;2023-01-26T09:28:02;14.40;61.50
65231;DHT22;51813;40.666;16.602;2023-01-26T09:30:28;14.40;61.70
65231;DHT22;51813;40.666;16.602;2023-01-26T09:32:58;14.40;61.40
65231;DHT22;51813;40.666;16.602;2023-01-26T09:35:29;14.40;61.40
65231;DHT22;51813;40.666;16.602;2023-01-26T09:37:55;14.40;61.30
65231;DHT22;51813;40.666;16.602;2023-01-26T09:40:29;14.40;61.60
65231;DHT22;51813;40.666;16.602;2023-01-26T09:43:36;14.40;61.40
65231;DHT22;51813;40.666;16.602;2023-01-26T09:57:00;14.50;61.00
65231;DHT22;51813;40.666;16.602;2023-01-26T10:01:56;14.40;60.90
65231;DHT22;51813;40.666;16.602;2023-01-26T10:04:33;14.30;61.20
65231;DHT22;51813;40.666;16.602;2023-01-26T10:07:13;14.40;61.20
65231;DHT22;51813;40.666;16.602;2023-01-26T10:09:42;14.30;61.20
65231;DHT22;51813;40.666;16.602;2023-01-26T10:12:29;14.30;61.10
65231;DHT22;51813;40.666;16.602;2023-01-26T10:15:08;14.30;61.00
65231;DHT22;51813;40.666;16.602;2023-01-26T10:17:44;14.20;61.30
65231;DHT22;51813;40.666;16.602;2023-01-26T10:22:55;14.20;61.50
65231;DHT22;51813;40.666;16.602;2023-01-26T10:25:37;14.30;61.20
65231;DHT22;51813;40.666;16.602;2023-01-26T10:28:25;14.30;60.90
65231;DHT22;51813;40.666;16.602;2023-01-26T10:30:52;14.30;61.40
65231;DHT22;51813;40.666;16.602;2023-01-26T10:33:25;14.20;61.40
65231;DHT22;51813;40.666;16.602;2023-01-26T10:35:52;14.20;61.30
65231;DHT22;51813;40.666;16.602;2023-01-26T10:48:53;14.40;60.90
65231;DHT22;51813;40.666;16.602;2023-01-26T10:51:30;14.40;61.00
65231;DHT22;51813;40.666;16.602;2023-01-26T10:54:27;14.40;61.00
65231;DHT22;51813;40.666;16.602;2023-01-26T10:57:02;14.40;61.00
65231;DHT22;51813;40.666;16.602;2023-01-26T10:59:37;14.50;60.50
65231;DHT22;51813;40.666;16.602;2023-01-26T11:04:39;14.80;60.10
65231;DHT22;51813;40.666;16.602;2023-01-26T11:07:26;14.90;59.80
65231;DHT22;51813;40.666;16.602;2023-01-26T11:09:53;15.10;59.50
65231;DHT22;51813;40.666;16.602;2023-01-26T11:12:20;15.20;58.80
65231;DHT22;51813;40.666;16.602;2023-01-26T11:15:01;15.30;58.80
65231;DHT22;51813;40.666;16.602;2023-01-26T11:17:42;15.40;58.20
65231;DHT22;51813;40.666;16.602;2023-01-26T11:20:45;15.60;57.90
65231;DHT22;51813;40.666;16.602;2023-01-26T11:23:22;15.60;57.40
65231;DHT22;51813;40.666;16.602;2023-01-26T11:32:03;15.70;57.00
65231;DHT22;51813;40.666;16.602;2023-01-26T11:34:27;15.80;57.50
65231;DHT22;51813;40.666;16.602;2023-01-26T11:48:52;16.10;56.10
65231;DHT22;51813;40.666;16.602;2023-01-26T11:59:45;16.10;56.10
65231;DHT22;51813;40.666;16.602;2023-01-26T12:04:50;16.20;55.60
65231;DHT22;51813;40.666;16.602;2023-01-26T12:07:41;16.20;55.80
65231;DHT22;51813;40.666;16.602;2023-01-26T12:10:26;16.10;55.70
65231;DHT22;51813;40.666;16.602;2023-01-26T12:13:05;16.10;55.80
65231;DHT22;51813;40.666;16.602;2023-01-26T12:15:35;16.10;56.10
65231;DHT22;51813;40.666;16.602;2023-01-26T12:20:44;16.00;56.20
65231;DHT22;51813;40.666;16.602;2023-01-26T12:23:36;16.00;56.20
65231;DHT22;51813;40.666;16.602;2023-01-26T12:26:14;16.00;56.20
65231;DHT22;51813;40.666;16.602;2023-01-26T12:33:51;15.80;56.70
65231;DHT22;51813;40.666;16.602;2023-01-26T12:47:18;15.60;57.30
65231;DHT22;51813;40.666;16.602;2023-01-26T12:52:36;15.60;57.20
65231;DHT22;51813;40.666;16.602;2023-01-26T12:55:09;15.60;57.20
65231;DHT22;51813;40.666;16.602;2023-01-26T12:57:41;15.60;57.10
65231;DHT22;51813;40.666;16.602;2023-01-26T13:00:21;15.60;57.00
65231;DHT22;51813;40.666;16.602;2023-01-26T13:03:01;15.70;57.00
65231;DHT22;51813;40.666;16.602;2023-01-26T13:05:30;15.60;57.00
65231;DHT22;51813;40.666;16.602;2023-01-26T13:07:57;15.60;56.90
65231;DHT22;51813;40.666;16.602;2023-01-26T13:10:25;15.60;57.20
65231;DHT22;51813;40.666;16.602;2023-01-26T13:12:55;15.50;57.30
65231;DHT22;51813;40.666;16.602;2023-01-26T13:15:25;15.50;57.10
65231;DHT22;51813;40.666;16.602;2023-01-26T13:17:59;15.50;57.30
65231;DHT22;51813;40.666;16.602;2023-01-26T13:22:54;15.50;57.30
65231;DHT22;51813;40.666;16.602;2023-01-26T13:25:31;15.40;57.20
65231;DHT22;51813;40.666;16.602;2023-01-26T13:28:02;15.40;57.30
65231;DHT22;51813;40.666;16.602;2023-01-26T13:30:42;15.50;57.30
65231;DHT22;51813;40.666;16.602;2023-01-26T13:33:21;15.50;57.40
65231;DHT22;51813;40.666;16.602;2023-01-26T13:35:49;15.50;57.20
65231;DHT22;51813;40.666;16.602;2023-01-26T13:38:25;15.50;57.40
65231;DHT22;51813;40.666;16.602;2023-01-26T13:40:52;15.40;58.20
65231;DHT22;51813;40.666;16.602;2023-01-26T13:43:28;15.40;57.50
65231;DHT22;51813;40.666;16.602;2023-01-26T13:48:45;15.40;57.60
65231;DHT22;51813;40.666;16.602;2023-01-26T13:51:26;15.40;57.80
65231;DHT22;51813;40.666;16.602;2023-01-26T13:53:53;15.40;57.80
65231;DHT22;51813;40.666;16.602;2023-01-26T13:56:25;15.40;57.70
65231;DHT22;51813;40.666;16.602;2023-01-26T13:58:51;15.40;57.60
65231;DHT22;51813;40.666;16.602;2023-01-26T14:01:18;15.50;57.50
65231;DHT22;51813;40.666;16.602;2023-01-26T14:03:44;15.50;57.40
65231;DHT22;51813;40.666;16.602;2023-01-26T14:06:20;15.60;57.40
65231;DHT22;51813;40.666;16.602;2023-01-26T14:08:51;15.60;57.40
65231;DHT22;51813;40.666;16.602;2023-01-26T14:11:21;15.50;57.40
65231;DHT22;51813;40.666;16.602;2023-01-26T14:13:55;15.60;57.50
65231;DHT22;51813;40.666;16.602;2023-01-26T14:16:27;15.60;57.50
65231;DHT22;51813;40.666;16.602;2023-01-26T14:19:23;15.50;57.40
65231;DHT22;51813;40.666;16.602;2023-01-26T14:21:59;15.50;57.50
65231;DHT22;51813;40.666;16.602;2023-01-26T14:24:37;15.50;57.90
65231;DHT22;51813;40.666;16.602;2023-01-26T14:29:51;15.50;58.50
65231;DHT22;51813;40.666;16.602;2023-01-26T14:32:17;15.60;58.10
65231;DHT22;51813;40.666;16.602;2023-01-26T14:34:57;15.90;57.30
65231;DHT22;51813;40.666;16.602;2023-01-26T14:37:24;16.20;56.30
65231;DHT22;51813;40.666;16.602;2023-01-26T14:40:21;16.50;55.70
65231;DHT22;51813;40.666;16.602;2023-01-26T14:42:49;16.70;55.20
65231;DHT22;51813;40.666;16.602;2023-01-26T14:45:16;16.80;54.70
65231;DHT22;51813;40.666;16.602;2023-01-26T14:47:42;16.90;54.50
65231;DHT22;51813;40.666;16.602;2023-01-26T14:50:22;17.00;54.40
65231;DHT22;51813;40.666;16.602;2023-01-26T14:52:48;17.10;54.30
65231;DHT22;51813;40.666;16.602;2023-01-26T14:55:34;17.10;54.20
65231;DHT22;51813;40.666;16.602;2023-01-26T14:58:02;17.10;54.00
65231;DHT22;51813;40.666;16.602;2023-01-26T15:00:35;17.20;54.00
65231;DHT22;51813;40.666;16.602;2023-01-26T15:03:32;17.20;54.00
65231;DHT22;51813;40.666;16.602;2023-01-26T15:06:19;17.10;54.00
65231;DHT22;51813;40.666;16.602;2023-01-26T15:11:35;17.30;53.50
65231;DHT22;51813;40.666;16.602;2023-01-26T15:16:56;17.40;53.70
65231;DHT22;51813;40.666;16.602;2023-01-26T15:19:23;17.10;54.10
65231;DHT22;51813;40.666;16.602;2023-01-26T15:21:49;16.70;54.60
65231;DHT22;51813;40.666;16.602;2023-01-26T15:24:15;16.40;55.30
65231;DHT22;51813;40.666;16.602;2023-01-26T15:26:41;16.40;55.70
65231;DHT22;51813;40.666;16.602;2023-01-26T15:29:30;16.30;55.90
65231;DHT22;51813;40.666;16.602;2023-01-26T15:31:57;16.30;55.80
65231;DHT22;51813;40.666;16.602;2023-01-26T15:36:55;16.30;56.00
65231;DHT22;51813;40.666;16.602;2023-01-26T15:39:23;16.30;56.00
65231;DHT22;51813;40.666;16.602;2023-01-26T15:44:29;16.20;56.20
65231;DHT22;51813;40.666;16.602;2023-01-26T15:46:55;16.20;56.00
65231;DHT22;51813;40.666;16.602;2023-01-26T15:49:22;16.20;56.40
65231;DHT22;51813;40.666;16.602;2023-01-26T15:51:48;16.20;56.20
65231;DHT22;51813;40.666;16.602;2023-01-26T15:54:14;16.20;56.30
65231;DHT22;51813;40.666;16.602;2023-01-26T15:56:39;16.10;56.30
65231;DHT22;51813;40.666;16.602;2023-01-26T15:59:05;16.10;56.40
65231;DHT22;51813;40.666;16.602;2023-01-26T16:01:31;16.10;56.40
65231;DHT22;51813;40.666;16.602;2023-01-26T16:03:56;16.10;56.40
65231;DHT22;51813;40.666;16.602;2023-01-26T16:06:28;16.10;56.40
65231;DHT22;51813;40.666;16.602;2023-01-26T16:08:55;16.10;56.90
65231;DHT22;51813;40.666;16.602;2023-01-26T16:11:23;16.10;57.00
65231;DHT22;51813;40.666;16.602;2023-01-26T16:13:50;16.00;57.10
65231;DHT22;51813;40.666;16.602;2023-01-26T16:16:17;16.10;56.80
65231;DHT22;51813;40.666;16.602;2023-01-26T16:18:43;16.10;57.10
65231;DHT22;51813;40.666;16.602;2023-01-26T16:21:18;16.10;56.90
65231;DHT22;51813;40.666;16.602;2023-01-26T16:23:44;16.00;57.00
65231;DHT22;51813;40.666;16.602;2023-01-26T16:26:11;16.00;57.30
65231;DHT22;51813;40.666;16.602;2023-01-26T16:28:37;16.10;57.30
65231;DHT22;51813;40.666;16.602;2023-01-26T16:31:27;16.10;57.10
65231;DHT22;51813;40.666;16.602;2023-01-26T16:33:51;16.10;57.10
65231;DHT22;51813;40.666;16.602;2023-01-26T16:36:18;16.10;57.10
65231;DHT22;51813;40.666;16.602;2023-01-26T16:38:45;16.10;57.00
65231;DHT22;51813;40.666;16.602;2023-01-26T16:41:14;16.10;57.00
65231;DHT22;51813;40.666;16.602;2023-01-26T16:43:42;16.10;57.10
65231;DHT22;51813;40.666;16.602;2023-01-26T16:46:08;16.10;57.20
65231;DHT22;51813;40.666;16.602;2023-01-26T16:48:34;16.10;57.30
65231;DHT22;51813;40.666;16.602;2023-01-26T16:51:06;16.10;57.10
65231;DHT22;51813;40.666;16.602;2023-01-26T16:53:35;16.20;57.00
65231;DHT22;51813;40.666;16.602;2023-01-26T16:56:02;16.10;57.10
65231;DHT22;51813;40.666;16.602;2023-01-26T16:58:27;16.10;57.10
65231;DHT22;51813;40.666;16.602;2023-01-26T17:00:55;16.20;57.10
65231;DHT22;51813;40.666;16.602;2023-01-26T17:03:21;16.10;56.80
65231;DHT22;51813;40.666;16.602;2023-01-26T17:05:47;16.10;57.10
65231;DHT22;51813;40.666;16.602;2023-01-26T17:08:15;16.10;57.00
65231;DHT22;51813;40.666;16.602;2023-01-26T17:10:40;16.10;57.10
65231;DHT22;51813;40.666;16.602;2023-01-26T17:13:06;16.10;57.00
65231;DHT22;51813;40.666;16.602;2023-01-26T17:15:32;16.10;57.00
65231;DHT22;51813;40.666;16.602;2023-01-26T17:17:58;16.20;57.10